Time;durP1;ratioP1;P1;durP2;ratioP2;P2;SDS_P1;SDS_P2;PMS_P1;PMS_P2;Temp;Humidity;BMP_temperature;BMP_pressure;BME280_temperature;BME280_humidity;BME280_pressure;Samples;Min_cycle;Max_cycle;Signal;HPM_P1;HPM_P2
2022/05/02 00:00:24;;;;;;;13.47;11.70;;;;;;;8.95;100.00;98300.88;5078657;28;20216;-68
2022/05/02 00:02:50;;;;;;;13.10;11.70;;;;;;;8.91;100.00;98302.00;5078224;28;20211;-68
2022/05/02 00:05:16;;;;;;;13.23;11.83;;;;;;;8.82;100.00;98308.66;5078362;28;20722;-68
2022/05/02 00:07:43;;;;;;;13.70;12.17;;;;;;;8.67;100.00;98308.72;5078465;28;20232;-69
2022/05/02 00:10:11;;;;;;;15.43;12.93;;;;;;;8.62;100.00;98302.91;5074466;28;20238;-67
2022/05/02 00:12:37;;;;;;;16.50;14.43;;;;;;;8.74;100.00;98307.41;5075410;28;20730;-69
2022/05/02 00:15:07;;;;;;;15.87;14.07;;;;;;;8.79;100.00;98298.31;5074617;28;20213;-70
2022/05/02 00:20:34;;;;;;;14.53;12.93;;;;;;;8.72;100.00;98299.63;4993910;28;20240;-68
2022/05/02 00:23:03;;;;;;;15.27;13.63;;;;;;;8.69;100.00;98294.53;4993785;28;20214;-68
2022/05/02 00:25:30;;;;;;;16.80;13.53;;;;;;;8.68;100.00;98292.81;5016954;28;20215;-68
2022/05/02 00:27:57;;;;;;;16.30;14.47;;;;;;;8.67;100.00;98290.28;5076955;28;20321;-68
2022/05/02 00:30:26;;;;;;;17.30;13.87;;;;;;;8.71;100.00;98284.75;5077293;28;20241;-67
2022/05/02 00:32:53;;;;;;;17.57;15.67;;;;;;;8.71;100.00;98281.25;5076653;28;20219;-68
2022/05/02 00:35:20;;;;;;;19.40;16.47;;;;;;;8.73;100.00;98287.28;5060952;28;20226;-68
2022/05/02 00:37:47;;;;;;;22.97;17.97;;;;;;;8.79;100.00;98281.63;5075391;28;20293;-68
2022/05/02 00:40:16;;;;;;;21.20;18.40;;;;;;;8.87;100.00;98282.06;5075243;28;20704;-68
2022/05/02 00:42:44;;;;;;;23.30;18.20;;;;;;;8.93;100.00;98279.06;5077803;28;20329;-68
2022/05/02 00:45:12;;;;;;;22.07;18.47;;;;;;;9.02;100.00;98281.97;5061637;28;20294;-69
2022/05/02 00:47:40;;;;;;;19.23;16.77;;;;;;;9.10;100.00;98279.72;5077085;28;20707;-69
2022/05/02 00:50:10;;;;;;;21.03;17.47;;;;;;;9.16;100.00;98275.84;5077382;28;20238;-67
2022/05/02 00:52:36;;;;;;;23.50;18.70;;;;;;;9.14;100.00;98269.81;5077637;28;20664;-68
2022/05/02 00:55:04;;;;;;;23.47;19.37;;;;;;;9.13;100.00;98268.97;5076295;28;20207;-68
2022/05/02 00:57:33;;;;;;;23.50;18.27;;;;;;;9.14;100.00;98269.81;5075874;28;20222;-68
2022/05/02 00:59:59;;;;;;;23.93;18.57;;;;;;;9.12;100.00;98263.81;5072947;28;20238;-68
2022/05/02 01:02:26;;;;;;;21.70;17.40;;;;;;;9.09;100.00;98266.63;5073599;28;20234;-68
2022/05/02 01:04:53;;;;;;;21.23;17.03;;;;;;;9.07;100.00;98266.69;5072110;28;20218;-68
2022/05/02 01:07:20;;;;;;;21.40;18.23;;;;;;;9.03;100.00;98261.72;5069707;28;20677;-68
2022/05/02 01:09:48;;;;;;;20.27;17.10;;;;;;;9.01;100.00;98258.34;5074497;28;20250;-68
2022/05/02 01:12:16;;;;;;;20.10;16.97;;;;;;;8.94;100.00;98257.84;5074582;28;20219;-68
2022/05/02 01:14:44;;;;;;;20.47;16.80;;;;;;;8.87;100.00;98255.69;5076130;28;20962;-68
2022/05/02 01:17:11;;;;;;;22.17;17.53;;;;;;;8.78;100.00;98262.38;5075896;28;20226;-68
2022/05/02 01:19:37;;;;;;;21.07;17.10;;;;;;;8.77;100.00;98254.53;5076627;28;20220;-67
2022/05/02 01:22:07;;;;;;;18.83;16.03;;;;;;;8.72;100.00;98259.25;5076606;28;20218;-68
2022/05/02 01:24:35;;;;;;;20.90;16.80;;;;;;;8.57;100.00;98254.91;5078178;28;20215;-68
2022/05/02 01:27:02;;;;;;;23.37;17.43;;;;;;;8.45;100.00;98252.97;5077736;28;20215;-67
2022/05/02 01:29:30;;;;;;;21.80;16.53;;;;;;;8.35;100.00;98252.69;5077596;28;20243;-68
2022/05/02 01:31:57;;;;;;;19.00;15.80;;;;;;;8.28;100.00;98248.72;5076278;28;20219;-69
2022/05/02 01:34:23;;;;;;;18.23;16.23;;;;;;;8.27;100.00;98254.06;5075429;28;20433;-68
2022/05/02 01:36:49;;;;;;;19.87;16.87;;;;;;;8.27;100.00;98259.31;5065183;28;20238;-69
2022/05/02 01:39:17;;;;;;;20.73;17.57;;;;;;;8.35;100.00;98246.53;5075801;28;20230;-68
2022/05/02 01:41:44;;;;;;;19.97;16.30;;;;;;;8.30;100.00;98249.44;5075313;28;20226;-68
2022/05/02 01:44:10;;;;;;;20.60;16.07;;;;;;;8.28;100.00;98251.34;5075916;28;20238;-69
2022/05/02 01:46:37;;;;;;;18.73;15.70;;;;;;;8.29;100.00;98246.91;5075478;28;20214;-68
2022/05/02 01:49:04;;;;;;;18.13;15.57;;;;;;;8.29;100.00;98236.38;5075322;28;20231;-68
2022/05/02 01:51:30;;;;;;;20.93;16.27;;;;;;;8.29;100.00;98241.63;5075634;28;20220;-68
2022/05/02 01:53:56;;;;;;;19.33;16.00;;;;;;;8.34;100.00;98235.16;5075296;28;20226;-68
2022/05/02 01:56:24;;;;;;;18.50;15.40;;;;;;;8.40;100.00;98236.59;5075281;28;20215;-67
2022/05/02 01:58:51;;;;;;;18.97;16.10;;;;;;;8.46;100.00;98234.44;5073886;28;20219;-68
2022/05/02 02:01:17;;;;;;;18.27;15.23;;;;;;;8.51;100.00;98237.66;5076130;28;20219;-69
2022/05/02 02:03:44;;;;;;;20.03;15.90;;;;;;;8.51;100.00;98236.81;5078187;28;20218;-68
2022/05/02 02:06:10;;;;;;;18.67;15.43;;;;;;;8.54;100.00;98232.22;5078207;28;20223;-68
2022/05/02 02:08:37;;;;;;;18.37;15.37;;;;;;;8.57;100.00;98237.28;5076326;28;20214;-68
2022/05/02 02:11:05;;;;;;;18.80;15.47;;;;;;;8.65;100.00;98240.34;5075382;28;20251;-68
2022/05/02 02:13:34;;;;;;;18.40;15.17;;;;;;;8.69;100.00;98230.44;5075314;28;20727;-67
2022/05/02 02:16:01;;;;;;;17.47;14.57;;;;;;;8.74;100.00;98233.63;5075371;28;20225;-67
2022/05/02 02:18:28;;;;;;;17.27;14.17;;;;;;;8.75;100.00;98233.56;5075365;28;20220;-68
2022/05/02 02:20:56;;;;;;;17.57;14.27;;;;;;;8.76;100.00;98231.78;5074386;28;20254;-69
2022/05/02 02:23:23;;;;;;;17.10;14.87;;;;;;;8.80;100.00;98234.13;5072713;28;20231;-69
2022/05/02 02:25:50;;;;;;;16.63;13.87;;;;;;;8.81;100.00;98237.63;5075216;28;20627;-68
2022/05/02 02:28:17;;;;;;;15.77;13.57;;;;;;;8.85;100.00;98241.75;5075302;28;20211;-70
2022/05/02 02:30:45;;;;;;;20.90;17.07;;;;;;;8.94;100.00;98234.13;5074954;28;20243;-68
2022/05/02 02:33:12;;;;;;;18.37;14.93;;;;;;;8.99;100.00;98228.59;5074729;28;20230;-67
2022/05/02 02:35:39;;;;;;;17.70;14.47;;;;;;;9.07;100.00;98231.59;5073812;28;20218;-68
2022/05/02 02:38:09;;;;;;;17.30;14.37;;;;;;;9.15;100.00;98227.56;5074477;28;20223;-68
2022/05/02 02:40:35;;;;;;;15.80;13.70;;;;;;;9.20;100.00;98221.97;5074440;28;20254;-68
2022/05/02 02:43:02;;;;;;;15.50;13.80;;;;;;;9.26;100.00;98240.06;5074636;28;20250;-69
2022/05/02 02:45:28;;;;;;;15.43;13.50;;;;;;;9.26;100.00;98233.00;5074676;28;20211;-68
2022/05/02 02:47:56;;;;;;;15.40;13.20;;;;;;;9.29;100.00;98229.31;5074518;28;20210;-69
2022/05/02 02:50:23;;;;;;;18.80;13.97;;;;;;;9.33;100.00;98220.28;5072798;28;20239;-69
2022/05/02 02:52:49;;;;;;;15.27;12.87;;;;;;;9.35;100.00;98210.47;5074557;28;20218;-67
2022/05/02 02:55:16;;;;;;;14.77;13.17;;;;;;;9.39;100.00;98212.84;5074495;28;20230;-67
2022/05/02 02:57:42;;;;;;;16.23;13.30;;;;;;;9.45;100.00;98214.22;5074443;28;20223;-68
2022/05/02 03:00:10;;;;;;;15.40;13.20;;;;;;;9.48;100.00;98217.50;5074497;28;20211;-68
2022/05/02 03:02:38;;;;;;;14.10;12.70;;;;;;;9.49;100.00;98208.66;5074201;28;20211;-68
2022/05/02 03:08:05;;;;;;;14.80;12.40;;;;;;;9.40;100.00;98211.03;5032022;28;20352;-67
2022/05/02 03:10:32;;;;;;;13.90;12.40;;;;;;;9.36;100.00;98204.28;5032004;28;20250;-68
2022/05/02 03:12:58;;;;;;;14.47;12.97;;;;;;;9.35;100.00;98198.13;5050175;28;20225;-68
2022/05/02 03:15:25;;;;;;;14.17;12.60;;;;;;;9.30;100.00;98192.28;5072513;28;20241;-68
2022/05/02 03:17:51;;;;;;;15.10;12.70;;;;;;;9.33;100.00;98197.38;5074291;28;20219;-67
2022/05/02 03:20:19;;;;;;;14.70;12.53;;;;;;;9.32;100.00;98200.97;5074138;28;20257;-68
2022/05/02 03:22:46;;;;;;;16.10;13.57;;;;;;;9.29;100.00;98190.59;5073719;28;20215;-68
2022/05/02 03:25:12;;;;;;;14.03;12.17;;;;;;;9.24;100.00;98186.56;5073536;28;20670;-68
2022/05/02 03:27:39;;;;;;;13.83;12.33;;;;;;;9.21;100.00;98184.97;5073620;28;20208;-68
2022/05/02 03:30:07;;;;;;;15.10;13.50;;;;;;;9.23;100.00;98195.44;5073722;28;20284;-68
2022/05/02 03:32:33;;;;;;;15.30;13.00;;;;;;;9.26;100.00;98192.59;5073967;28;20577;-68
2022/05/02 03:35:00;;;;;;;14.30;12.77;;;;;;;9.26;100.00;98184.69;5073614;28;20703;-67
2022/05/02 03:37:27;;;;;;;15.37;13.77;;;;;;;9.27;100.00;98192.50;5073774;28;20219;-68
2022/05/02 03:39:54;;;;;;;14.83;13.23;;;;;;;9.30;100.00;98186.19;5073258;28;20218;-68
2022/05/02 03:42:20;;;;;;;16.70;14.00;;;;;;;9.31;100.00;98185.25;5071906;28;20235;-67
2022/05/02 03:44:47;;;;;;;16.67;14.03;;;;;;;9.32;100.00;98176.38;5073596;28;20222;-68
2022/05/02 03:47:13;;;;;;;18.10;15.23;;;;;;;9.38;100.00;98191.81;5073284;28;20207;-68
2022/05/02 03:49:40;;;;;;;15.50;13.90;;;;;;;9.44;100.00;98184.38;5072886;28;20231;-67
2022/05/02 03:52:07;;;;;;;16.10;14.40;;;;;;;9.46;100.00;98187.75;5073171;28;20673;-68
2022/05/02 03:54:35;;;;;;;15.43;13.73;;;;;;;9.44;100.00;98180.88;5073132;28;20211;-68
2022/05/02 03:57:01;;;;;;;17.33;14.23;;;;;;;9.40;100.00;98184.66;5073427;28;20217;-67
2022/05/02 03:59:28;;;;;;;16.47;14.37;;;;;;;9.36;100.00;98180.53;5073185;28;20219;-67
2022/05/02 04:01:54;;;;;;;20.07;16.13;;;;;;;9.33;100.00;98180.72;5073257;28;20218;-67
2022/05/02 04:04:20;;;;;;;18.87;15.63;;;;;;;9.26;100.00;98189.97;5073307;28;20264;-67
2022/05/02 04:06:48;;;;;;;19.97;16.93;;;;;;;9.21;100.00;98187.63;5072974;28;20223;-67
2022/05/02 04:09:15;;;;;;;18.63;16.43;;;;;;;9.20;100.00;98177.16;5071485;28;20618;-67
2022/05/02 04:11:43;;;;;;;19.87;16.33;;;;;;;9.16;100.00;98179.13;5057244;28;20260;-68
2022/05/02 04:14:09;;;;;;;17.87;14.80;;;;;;;9.09;100.00;98183.09;5073091;28;20224;-68
2022/05/02 04:16:36;;;;;;;16.17;14.47;;;;;;;8.98;100.00;98180.28;5073065;28;20210;-69
2022/05/02 04:19:03;;;;;;;18.23;14.60;;;;;;;8.91;100.00;98183.38;5073013;28;20219;-69
2022/05/02 04:21:29;;;;;;;18.23;14.80;;;;;;;8.85;100.00;98184.63;5072679;28;20215;-67
2022/05/02 04:23:56;;;;;;;17.93;15.40;;;;;;;8.75;100.00;98177.38;5072870;28;20213;-69
2022/05/02 04:26:22;;;;;;;19.20;15.07;;;;;;;8.65;100.00;98176.25;5073082;28;20211;-67
2022/05/02 04:28:50;;;;;;;17.83;15.20;;;;;;;8.61;100.00;98180.00;5073206;28;20215;-67
2022/05/02 04:31:16;;;;;;;16.40;14.57;;;;;;;8.59;100.00;98181.88;5072957;28;20242;-67
2022/05/02 04:33:43;;;;;;;18.90;15.70;;;;;;;8.59;100.00;98187.16;5071301;28;20215;-67
2022/05/02 04:36:10;;;;;;;18.57;15.23;;;;;;;8.59;100.00;98182.75;5073261;28;20211;-67
2022/05/02 04:38:36;;;;;;;20.40;17.23;;;;;;;8.59;100.00;98172.19;5072940;28;20241;-69
2022/05/02 04:41:03;;;;;;;19.80;16.07;;;;;;;8.65;100.00;98185.00;5072582;28;20833;-68
2022/05/02 04:43:29;;;;;;;23.10;16.83;;;;;;;8.75;100.00;98180.03;5072813;28;20235;-67
2022/05/02 04:45:57;;;;;;;18.93;16.27;;;;;;;8.75;100.00;98183.47;5072811;28;20221;-67
2022/05/02 04:48:24;;;;;;;22.53;17.70;;;;;;;8.83;100.00;98185.66;5072790;28;20211;-68
2022/05/02 04:50:50;;;;;;;22.20;18.50;;;;;;;8.90;100.00;98179.91;5071811;28;20242;-68
2022/05/02 04:53:17;;;;;;;22.50;19.30;;;;;;;8.93;100.00;98184.16;5059466;28;20207;-68
2022/05/02 04:55:44;;;;;;;22.47;19.00;;;;;;;9.03;100.00;98182.63;5072961;28;20230;-68
2022/05/02 04:58:11;;;;;;;21.20;18.20;;;;;;;9.10;100.00;98183.94;5072777;28;20681;-68
2022/05/02 05:00:37;;;;;;;23.83;18.70;;;;;;;9.18;100.00;98181.69;5074705;28;20237;-68
2022/05/02 05:03:05;;;;;;;21.60;17.80;;;;;;;9.26;100.00;98184.69;5076400;28;20222;-68
2022/05/02 05:05:32;;;;;;;20.20;17.60;;;;;;;9.32;100.00;98189.56;5076568;28;20224;-69
2022/05/02 05:07:59;;;;;;;22.37;18.40;;;;;;;9.39;100.00;98185.59;5076165;28;20219;-68
2022/05/02 05:10:25;;;;;;;21.23;16.60;;;;;;;9.45;100.00;98190.47;5076287;28;20239;-68
2022/05/02 05:13:02;;;;;;;22.27;18.10;;;;;;;9.54;100.00;98184.63;5076063;28;20682;-68
2022/05/02 05:18:36;;;;;;;17.80;15.50;;;;;;;9.81;100.00;98182.84;5076012;28;20683;-69
2022/05/02 05:21:05;;;;;;;20.23;15.53;;;;;;;9.96;100.00;98184.44;5075945;28;20684;-68
2022/05/02 05:23:59;;;;;;;18.23;15.60;;;;;;;10.07;100.00;98187.28;5076227;28;20219;-67
2022/05/02 05:26:44;;;;;;;17.83;15.27;;;;;;;10.16;100.00;98189.31;5066783;28;20203;-67
2022/05/02 05:29:34;;;;;;;16.47;14.73;;;;;;;10.26;100.00;98185.94;5075824;28;20223;-71
2022/05/02 05:32:16;;;;;;;17.57;15.00;;;;;;;10.36;100.00;98187.03;5075793;28;20243;-69
2022/05/02 05:34:54;;;;;;;17.17;15.17;;;;;;;10.52;100.00;98186.84;5075952;28;20212;-68
2022/05/02 05:37:39;;;;;;;16.87;14.80;;;;;;;10.79;100.00;98179.66;5075661;28;20216;-67
2022/05/02 05:40:16;;;;;;;15.80;14.17;;;;;;;11.44;100.00;98186.44;5075862;28;20219;-67
2022/05/02 05:42:55;;;;;;;16.80;14.20;;;;;;;12.16;100.00;98189.06;5075944;28;20251;-69
2022/05/02 05:45:31;;;;;;;14.47;12.97;;;;;;;12.86;100.00;98188.03;5075888;28;20207;-67
2022/05/02 05:48:07;;;;;;;13.47;12.07;;;;;;;13.40;99.18;98183.72;5075580;28;20222;-67
2022/05/02 05:50:38;;;;;;;14.53;12.90;;;;;;;13.85;94.27;98182.66;5075279;28;20357;-68
2022/05/02 05:53:08;;;;;;;13.90;12.37;;;;;;;14.24;91.71;98190.06;5073686;28;20208;-68
2022/05/02 05:56:00;;;;;;;13.93;12.43;;;;;;;14.79;87.90;98181.81;5075529;28;20215;-68
2022/05/02 05:58:34;;;;;;;13.27;11.87;;;;;;;15.13;86.16;98175.25;5075335;28;20212;-68
2022/05/02 06:01:09;;;;;;;12.67;11.37;;;;;;;15.53;83.65;98179.66;5075278;28;20215;-68
2022/05/02 06:03:46;;;;;;;13.40;12.00;;;;;;;15.67;81.19;98170.44;5075272;28;20219;-69
2022/05/02 06:06:16;;;;;;;14.07;12.50;;;;;;;15.71;79.61;98182.53;5070754;28;20218;-68
2022/05/02 06:08:45;;;;;;;15.50;13.60;;;;;;;15.95;79.10;98185.66;5067797;28;20269;-68
2022/05/02 06:11:15;;;;;;;14.57;13.07;;;;;;;15.52;81.20;98182.47;5073917;28;20249;-67
2022/05/02 06:13:43;;;;;;;14.67;13.10;;;;;;;15.13;82.76;98185.91;5075301;28;20214;-68
2022/05/02 06:18:58;;;;;;;15.50;13.77;;;;;;;14.75;86.13;98180.38;5073452;28;20634;-68
2022/05/02 06:21:26;;;;;;;14.60;13.10;;;;;;;14.83;86.06;98185.88;5075096;28;20221;-68
2022/05/02 06:23:52;;;;;;;14.33;12.93;;;;;;;14.79;85.81;98181.81;5075124;28;20682;-68
2022/05/02 06:26:23;;;;;;;15.83;14.17;;;;;;;14.68;86.29;98184.53;5075026;28;20214;-68
2022/05/02 06:28:51;;;;;;;16.50;14.43;;;;;;;14.62;87.24;98182.38;5075025;28;20234;-68
2022/05/02 06:31:20;;;;;;;15.17;13.57;;;;;;;14.72;87.62;98186.78;5074364;28;20723;-68
2022/05/02 06:33:49;;;;;;;15.97;14.27;;;;;;;14.89;87.73;98177.38;5074810;28;20275;-67
2022/05/02 06:36:36;;;;;;;14.77;13.27;;;;;;;15.03;86.57;98182.38;5074566;28;20234;-67
2022/05/02 06:39:05;;;;;;;15.53;13.87;;;;;;;14.98;86.05;98187.22;5074476;28;20234;-67
2022/05/02 06:41:44;;;;;;;15.27;13.70;;;;;;;15.04;85.21;98173.41;5074765;28;20219;-68
2022/05/02 06:44:20;;;;;;;15.67;14.07;;;;;;;15.02;84.22;98183.34;5072808;28;20225;-67
2022/05/02 06:46:56;;;;;;;14.60;12.83;;;;;;;14.98;84.44;98181.91;5074488;28;20208;-67
2022/05/02 06:49:26;;;;;;;14.13;12.73;;;;;;;15.04;83.97;98184.03;5074578;28;20207;-67
2022/05/02 06:51:57;;;;;;;14.57;13.07;;;;;;;15.06;84.22;98190.06;5074364;28;20246;-67
2022/05/02 06:54:44;;;;;;;14.43;12.93;;;;;;;14.87;84.74;98179.31;5074330;28;20224;-67
2022/05/02 06:57:23;;;;;;;17.13;15.33;;;;;;;14.53;83.54;98181.34;5074227;28;20217;-67
2022/05/02 06:59:58;;;;;;;15.53;13.93;;;;;;;14.27;85.42;98181.81;5074333;28;20617;-67
2022/05/02 07:02:56;;;;;;;15.50;13.50;;;;;;;14.10;87.66;98187.66;5074297;28;20209;-67
2022/05/02 07:05:27;;;;;;;16.70;14.37;;;;;;;14.09;90.54;98186.84;5073899;28;20213;-67
2022/05/02 07:08:04;;;;;;;15.80;14.17;;;;;;;14.17;90.85;98188.88;5074183;28;20211;-67
2022/05/02 07:10:33;;;;;;;16.73;15.00;;;;;;;14.02;89.41;98196.28;5072273;28;20216;-67
2022/05/02 07:13:18;;;;;;;16.30;14.67;;;;;;;13.95;88.50;98186.28;5074005;28;20219;-67
2022/05/02 07:15:46;;;;;;;16.63;14.93;;;;;;;13.98;91.12;98191.31;5073911;28;20256;-67
2022/05/02 07:18:37;;;;;;;17.70;15.90;;;;;;;14.13;89.47;98192.72;5073857;28;20253;-67
2022/05/02 07:21:20;;;;;;;16.63;14.90;;;;;;;14.06;86.92;98192.38;5070274;28;20219;-67
2022/05/02 07:24:17;;;;;;;16.43;14.73;;;;;;;13.96;87.88;98185.28;5069021;28;20307;-67
2022/05/02 07:26:59;;;;;;;18.13;16.13;;;;;;;14.10;91.13;98188.50;5059583;28;21565;-67
2022/05/02 07:29:27;;;;;;;16.87;15.07;;;;;;;14.23;88.80;98181.25;5072133;28;20226;-67
2022/05/02 07:31:55;;;;;;;16.80;15.10;;;;;;;14.24;88.16;98188.25;5072953;28;20616;-68
2022/05/02 07:34:23;;;;;;;16.93;15.13;;;;;;;14.34;88.76;98180.34;5073645;28;20592;-68
2022/05/02 07:36:51;;;;;;;17.70;15.83;;;;;;;14.40;87.68;98185.16;5071872;28;20217;-68
2022/05/02 07:39:22;;;;;;;15.67;14.07;;;;;;;14.50;87.62;98184.28;5073329;28;20638;-69
2022/05/02 07:41:50;;;;;;;17.70;15.87;;;;;;;14.57;87.36;98179.25;5073318;28;20213;-68
2022/05/02 07:44:19;;;;;;;16.50;14.63;;;;;;;14.64;88.65;98188.41;5073190;28;20586;-68
2022/05/02 07:46:47;;;;;;;17.93;15.70;;;;;;;14.75;88.21;98185.69;5073142;28;20212;-68
2022/05/02 07:49:16;;;;;;;17.33;15.50;;;;;;;14.86;86.71;98189.09;5073296;28;20601;-67
2022/05/02 07:51:46;;;;;;;16.87;15.03;;;;;;;15.02;87.54;98183.34;5073038;28;20244;-68
2022/05/02 07:54:16;;;;;;;17.77;15.97;;;;;;;15.19;87.55;98180.03;5073321;28;20320;-68
2022/05/02 07:56:47;;;;;;;16.77;14.97;;;;;;;15.31;87.02;98177.16;5073300;28;20250;-68
2022/05/02 07:59:16;;;;;;;16.13;14.40;;;;;;;15.38;84.45;98180.16;5073049;28;20215;-69
2022/05/02 08:01:43;;;;;;;16.83;15.23;;;;;;;15.45;84.15;98186.66;5071410;28;20590;-67
2022/05/02 08:04:12;;;;;;;17.37;15.53;;;;;;;15.46;82.57;98186.50;5073391;28;20210;-68
2022/05/02 08:06:54;;;;;;;17.23;15.37;;;;;;;15.37;82.82;98184.66;5072988;28;20217;-68
2022/05/02 08:09:39;;;;;;;17.80;15.17;;;;;;;15.38;84.51;98182.81;5073130;28;20225;-68
2022/05/02 08:12:24;;;;;;;16.60;14.80;;;;;;;15.47;82.80;98180.19;5072732;28;20246;-68
2022/05/02 08:14:59;;;;;;;17.57;15.77;;;;;;;15.47;81.68;98182.03;5071502;28;20219;-68
2022/05/02 08:17:41;;;;;;;17.83;15.93;;;;;;;15.55;83.76;98183.03;5052579;28;20223;-68
2022/05/02 08:20:20;;;;;;;17.43;15.60;;;;;;;15.81;84.82;98178.03;5052088;28;20207;-68
2022/05/02 08:28:39;;;;;;;16.50;14.60;;;;;;;16.02;81.15;98186.78;5069776;28;20222;-68
2022/05/02 08:31:12;;;;;;;17.20;15.50;;;;;;;16.13;80.86;98185.69;5071228;28;20710;-69
2022/05/02 08:33:47;;;;;;;16.07;14.47;;;;;;;16.27;82.71;98182.59;5072858;28;20211;-68
2022/05/02 08:36:28;;;;;;;16.20;14.57;;;;;;;16.41;79.68;98174.19;5070545;28;20222;-68
2022/05/02 08:38:58;;;;;;;16.00;14.00;;;;;;;16.55;78.66;98176.44;5074020;28;20242;-69
2022/05/02 08:42:11;;;;;;;16.97;15.10;;;;;;;16.68;79.66;98176.13;5075707;28;20215;-69
2022/05/02 08:45:22;;;;;;;18.27;16.37;;;;;;;16.52;73.59;98166.03;5033079;28;20219;-69
2022/05/02 08:48:35;;;;;;;16.10;14.43;;;;;;;16.58;76.38;98160.16;5018080;28;20219;-68
2022/05/02 08:51:44;;;;;;;15.50;13.90;;;;;;;16.71;77.04;98171.34;5075107;28;20215;-68
2022/05/02 08:54:45;;;;;;;16.10;14.40;;;;;;;16.82;74.86;98167.72;5073626;28;20211;-68
2022/05/02 08:57:35;;;;;;;18.70;15.20;;;;;;;16.90;73.45;98171.34;5075391;28;20221;-67
2022/05/02 09:00:07;;;;;;;15.57;14.07;;;;;;;16.76;69.99;98162.94;5075390;28;20218;-68
2022/05/02 09:03:13;;;;;;;14.80;12.90;;;;;;;16.82;74.13;98157.84;5074979;28;20684;-68
2022/05/02 09:06:09;;;;;;;14.87;12.23;;;;;;;17.04;73.34;98173.56;5075123;28;20227;-68
2022/05/02 09:09:04;;;;;;;13.93;12.53;;;;;;;17.15;70.42;98164.50;5054761;28;20219;-68
2022/05/02 09:11:49;;;;;;;13.47;12.17;;;;;;;17.29;72.14;98164.88;5075114;28;20231;-68
2022/05/02 09:14:43;;;;;;;13.73;12.37;;;;;;;17.42;69.82;98168.09;5044229;28;20216;-68
2022/05/02 09:17:52;;;;;;;14.37;12.87;;;;;;;17.57;67.14;98165.78;5075022;28;20222;-69
2022/05/02 09:20:57;;;;;;;14.57;13.17;;;;;;;17.46;65.52;98165.97;5074583;28;20219;-69
2022/05/02 09:24:24;;;;;;;15.63;14.00;;;;;;;17.24;67.77;98164.47;5032293;28;20231;-68
2022/05/02 09:27:13;;;;;;;14.10;12.70;;;;;;;17.41;68.76;98171.75;4973327;28;20711;-69
2022/05/02 09:30:18;;;;;;;14.87;13.37;;;;;;;17.55;72.55;98165.09;5012358;28;20213;-68
2022/05/02 09:32:47;;;;;;;13.57;12.27;;;;;;;17.78;69.55;98164.53;5046280;28;20239;-69
2022/05/02 09:35:18;;;;;;;11.70;10.60;;;;;;;18.08;68.23;98161.53;5073925;28;20219;-68
2022/05/02 09:37:56;;;;;;;12.80;11.50;;;;;;;18.29;62.62;98154.03;5073511;28;20265;-68
2022/05/02 09:40:36;;;;;;;12.17;10.97;;;;;;;18.17;60.34;98149.06;5074154;28;20211;-68
2022/05/02 09:49:33;;;;;;;12.90;11.60;;;;;;;18.13;67.56;98143.19;5074190;28;20239;-68
2022/05/02 09:49:49;;;;;;;11.83;10.63;;;;;;;18.78;65.69;98142.75;5072409;28;20234;-68
2022/05/02 09:52:17;;;;;;;9.70;8.70;;;;;;;18.94;62.87;98145.53;5073895;28;20235;-68
2022/05/02 09:58:17;;;;;;;10.87;9.83;;;;;;;19.07;57.58;98129.88;5058549;28;20689;-69
2022/05/02 10:01:07;;;;;;;12.47;11.17;;;;;;;19.12;60.66;98135.63;5073599;28;20693;-68
2022/05/02 10:03:37;;;;;;;12.03;10.93;;;;;;;18.95;60.05;98136.50;5070064;28;20226;-69
2022/05/02 10:06:05;;;;;;;12.70;11.37;;;;;;;19.01;63.40;98130.53;5073242;28;20571;-69
2022/05/02 10:08:44;;;;;;;12.37;11.17;;;;;;;19.06;60.57;98128.22;5073173;28;20613;-69
2022/05/02 10:11:22;;;;;;;12.07;10.67;;;;;;;18.83;59.61;98127.06;5072788;28;20214;-68
2022/05/02 10:14:02;;;;;;;11.17;10.17;;;;;;;18.80;60.90;98118.50;5058970;28;20211;-68
2022/05/02 10:16:42;;;;;;;12.53;11.30;;;;;;;19.01;58.43;98127.03;5065785;28;20273;-70
2022/05/02 10:19:29;;;;;;;11.23;10.03;;;;;;;19.22;59.33;98122.13;5071615;28;20218;-70
2022/05/02 10:22:21;;;;;;;11.47;10.37;;;;;;;19.49;56.54;98113.88;5073404;28;20212;-70
2022/05/02 10:25:00;;;;;;;11.63;10.53;;;;;;;19.67;55.27;98109.25;5073584;28;20214;-70
2022/05/02 10:28:00;;;;;;;10.87;9.87;;;;;;;19.83;58.57;98115.50;5068328;28;20257;-70
2022/05/02 10:30:36;;;;;;;8.60;7.80;;;;;;;20.16;55.51;98109.22;5067441;28;20215;-70
2022/05/02 10:33:06;;;;;;;8.73;7.83;;;;;;;20.56;52.78;98108.41;5073018;28;20239;-70
2022/05/02 10:35:36;;;;;;;9.97;9.07;;;;;;;20.80;50.04;98103.81;5073460;28;20224;-70
2022/05/02 10:38:05;;;;;;;9.30;8.40;;;;;;;20.92;50.49;98104.38;5073411;28;20223;-70
2022/05/02 10:40:38;;;;;;;9.03;8.17;;;;;;;21.07;54.04;98105.31;5072287;28;20211;-70
2022/05/02 10:43:07;;;;;;;7.77;7.07;;;;;;;21.29;51.30;98100.06;5071951;28;20246;-70
2022/05/02 10:45:35;;;;;;;6.83;6.23;;;;;;;21.46;49.74;98104.34;5073182;28;20220;-70
2022/05/02 10:48:15;;;;;;;8.00;7.20;;;;;;;21.68;52.49;98089.31;5073235;28;20616;-72
2022/05/02 10:50:45;;;;;;;8.63;7.83;;;;;;;21.59;50.58;98095.75;5072939;28;20221;-70
2022/05/02 10:53:26;;;;;;;7.47;6.77;;;;;;;21.31;50.93;98089.97;5072905;28;20712;-70
2022/05/02 10:56:15;;;;;;;9.10;8.30;;;;;;;21.22;46.27;98088.31;5065087;28;20222;-70
2022/05/02 10:58:45;;;;;;;7.33;6.53;;;;;;;20.92;49.90;98086.38;5072038;28;20684;-71
2022/05/02 11:01:19;;;;;;;7.30;6.60;;;;;;;20.84;50.55;98086.38;5072899;28;20218;-70
2022/05/02 11:04:01;;;;;;;6.37;5.87;;;;;;;20.76;51.42;98083.72;5072805;28;20602;-71
2022/05/02 11:06:40;;;;;;;6.17;5.60;;;;;;;20.50;49.51;98084.91;5072668;28;20224;-71
2022/05/02 11:09:13;;;;;;;6.60;6.00;;;;;;;20.31;49.08;98080.69;5070791;28;20211;-71
2022/05/02 11:11:46;;;;;;;6.20;5.50;;;;;;;20.07;48.73;98071.81;5072603;28;20211;-71
2022/05/02 11:14:29;;;;;;;5.83;5.33;;;;;;;20.06;51.69;98080.88;5072540;28;20211;-72
2022/05/02 11:17:04;;;;;;;6.97;6.37;;;;;;;20.23;49.14;98080.72;5072426;28;20222;-71
2022/05/02 11:22:26;;;;;;;6.67;6.00;;;;;;;21.04;48.72;98068.88;5072504;28;20224;-70
2022/05/02 11:25:06;;;;;;;6.77;6.17;;;;;;;21.42;50.16;98070.78;5072224;28;20221;-71
2022/05/02 11:27:53;;;;;;;6.40;5.80;;;;;;;21.80;47.23;98061.84;5066621;28;20223;-71
2022/05/02 11:30:24;;;;;;;6.40;5.80;;;;;;;22.17;47.35;98064.63;5071911;28;20264;-71
2022/05/02 11:33:05;;;;;;;6.20;5.70;;;;;;;22.33;46.48;98058.28;5072019;28;20307;-71
2022/05/02 11:35:33;;;;;;;6.40;5.80;;;;;;;22.17;46.17;98070.00;5070608;28;20237;-70
2022/05/02 11:38:11;;;;;;;6.50;5.90;;;;;;;21.94;47.86;98063.78;5072305;28;20222;-70
2022/05/02 11:40:44;;;;;;;6.17;5.57;;;;;;;21.73;49.38;98063.59;5072606;28;20586;-70
2022/05/02 11:43:11;;;;;;;5.80;5.30;;;;;;;21.67;48.60;98061.59;5071921;28;20253;-71
2022/05/02 11:45:44;;;;;;;5.60;5.10;;;;;;;21.73;49.43;98060.88;5071830;28;20302;-70
2022/05/02 11:48:46;;;;;;;5.30;4.80;;;;;;;21.80;48.59;98055.63;5067653;28;20218;-70
2022/05/02 11:51:24;;;;;;;6.70;6.10;;;;;;;21.83;47.82;98058.78;5067052;28;20214;-70
2022/05/02 11:53:55;;;;;;;5.40;5.00;;;;;;;21.87;46.65;98051.19;5070732;28;20231;-72
2022/05/02 11:56:30;;;;;;;5.73;5.23;;;;;;;21.82;45.93;98064.38;5071925;28;20596;-71
2022/05/02 11:59:05;;;;;;;6.27;5.73;;;;;;;21.47;46.96;98054.09;5071950;28;20211;-71
2022/05/02 12:01:37;;;;;;;6.63;6.03;;;;;;;21.24;47.50;98059.44;5070051;28;20221;-70
2022/05/02 12:04:05;;;;;;;5.67;5.10;;;;;;;20.98;48.49;98050.75;5071829;28;20223;-70
2022/05/02 12:06:37;;;;;;;5.60;5.20;;;;;;;20.97;48.46;98062.53;5071929;28;20215;-70
2022/05/02 12:09:04;;;;;;;5.87;5.37;;;;;;;20.95;45.66;98048.44;5071637;28;20212;-72
2022/05/02 12:11:32;;;;;;;5.73;5.23;;;;;;;21.05;44.88;98054.47;5070540;28;20244;-71
2022/05/02 12:14:01;;;;;;;5.57;5.07;;;;;;;21.39;47.29;98046.91;5071563;28;20241;-71